Sedalia, NC (27342)

8:42 AM EST on January 25, 2015 (GMT -0500)
SE Sch. Rd. | Change Station
CLOSE
Current Station
Personal Weather Station
Location: Greensboro, NC
Elevation: 880 ft
Nearby Weather Stations

Elev 880 ft 36.01 °N, 79.70 °W | Updated 58 seconds ago

Partly Cloudy
Partly Cloudy
30.2 °F
Feels Like 30 °F
N
0.0
Wind Variable Wind from South
Gusts 0.0 mph

Today
High -- | Low -- °F
--% Chance of Precip.
Yesterday
High -- | Low -- °F
Precip. -- in
7:24 AM 5:37 PM
Waxing Crescent, 32% visible
Pressure 29.93 in
Visibility 10.0 miles
Clouds Clear
Windchill 30 °F
Dew Point 29 °F
Humidity 96%
Rainfall 0.00 in
Snow Depth Not available.
UV 0 out of 12
Pollen 1.60 out of 12
Air Quality Not available.
Flu Activity Not available.
METAR KBUY 251254Z AUTO 21003KT 10SM CLR M02/M04 A2991 RMK AO2 SLP134 T10171044

More Conditions Fewer Conditions

Pressure 29.93 in
Visibility 10.0 miles
Clouds Clear
Windchill 30 °F
Dew Point 29 °F
Humidity 96%
Rainfall 0.00 in
Snow Depth Not available.
UV 0 out of 12
Pollen 1.60 out of 12
Air Quality Not available.
Flu Activity Not available.
METAR KBUY 251254Z AUTO 21003KT 10SM CLR M02/M04 A2991 RMK AO2 SLP134 T10171044

More Conditions Fewer Conditions

10-Day Weather Forecast

Almanac

Astronomy

Jan. 25, 2015 Rise Set
Actual Time
Civil Twilight
Nautical Twilight
Astronomical Twilight
Moon
Length of Visible Light
Length of Day
Tomorrow will be .
, % of the Moon is Illuminated

Today's Extremes

State Highs State Lows

Community

WunderPhotos

Upload Photos

1,789,885 photos uploaded!

WunderBlogs® & News

Nearby

Air Quality

  Air Quality AQ Index Pollutant
Not available.

Snow Depth

Station Depth Elevation

Earthquake Activity

City Distance Mag. Time & Date
Minimum magnitude displayed is 2.5.

Coastal Water Temperatures

Place Temperature

Nearby Weather Stations